Time;durP1;ratioP1;P1;durP2;ratioP2;P2;SDS_P1;SDS_P2;PMS_P1;PMS_P2;Temp;Humidity;BMP_temperature;BMP_pressure;BME280_temperature;BME280_humidity;BME280_pressure;Samples;Min_cycle;Max_cycle;Signal;HPM_P1;HPM_P2
2021/04/14 00:01:44;;;;;;;14.38;12.88;;;0.70;99.90;;;;;;4885920;29;20218;-63
2021/04/14 00:04:11;;;;;;;12.82;11.57;;;0.80;99.90;;;;;;4881414;29;20850;-62
2021/04/14 00:06:38;;;;;;;17.05;13.32;;;0.90;99.90;;;;;;4888813;29;20664;-63
2021/04/14 00:09:05;;;;;;;12.63;11.43;;;0.80;99.90;;;;;;4882623;29;20319;-63
2021/04/14 00:11:32;;;;;;;13.85;12.45;;;0.80;99.90;;;;;;4885295;29;20207;-62
2021/04/14 00:13:58;;;;;;;16.23;13.55;;;0.80;99.90;;;;;;4890548;29;20258;-63
2021/04/14 00:16:26;;;;;;;16.30;13.60;;;0.70;99.90;;;;;;4889920;29;20271;-63
2021/04/14 00:18:52;;;;;;;13.38;12.07;;;0.60;99.90;;;;;;4890209;29;20329;-63
2021/04/14 00:21:21;;;;;;;14.30;12.70;;;0.40;99.90;;;;;;4890006;29;20206;-63
2021/04/14 00:23:49;;;;;;;16.23;11.85;;;0.50;99.90;;;;;;4889544;29;20225;-63
2021/04/14 00:26:16;;;;;;;16.17;14.43;;;0.50;99.90;;;;;;4890083;29;20211;-63
2021/04/14 00:28:43;;;;;;;15.60;12.57;;;0.50;99.90;;;;;;4888429;29;20358;-63
2021/04/14 00:31:10;;;;;;;17.33;14.23;;;0.50;99.90;;;;;;4887338;29;20266;-62
2021/04/14 00:33:37;;;;;;;14.63;13.13;;;0.50;99.90;;;;;;4889943;29;20215;-62
2021/04/14 00:36:04;;;;;;;16.30;13.82;;;0.50;99.90;;;;;;4888762;29;20306;-63
2021/04/14 00:38:30;;;;;;;19.55;14.55;;;0.60;99.90;;;;;;4888892;29;20333;-62
2021/04/14 00:41:00;;;;;;;15.95;14.25;;;0.50;99.90;;;;;;4887237;29;20215;-63
2021/04/14 00:43:29;;;;;;;16.45;13.95;;;0.40;99.90;;;;;;4885434;29;20261;-62
2021/04/14 00:45:56;;;;;;;15.93;13.98;;;0.40;99.90;;;;;;4887853;29;20646;-63
2021/04/14 00:48:22;;;;;;;16.90;12.20;;;0.40;99.90;;;;;;4889772;29;20266;-62
2021/04/14 00:50:49;;;;;;;17.40;14.43;;;0.30;99.90;;;;;;4881251;29;20212;-62
2021/04/14 00:53:16;;;;;;;13.13;11.75;;;0.30;99.90;;;;;;4889633;29;20211;-63
2021/04/14 00:55:43;;;;;;;14.02;10.90;;;0.40;99.90;;;;;;4881378;29;20214;-62
2021/04/14 00:58:10;;;;;;;13.88;11.55;;;0.30;99.90;;;;;;4889869;29;20231;-63
2021/04/14 01:00:40;;;;;;;13.73;11.23;;;0.20;99.90;;;;;;4888747;29;20203;-62
2021/04/14 01:03:11;;;;;;;12.32;10.95;;;0.30;99.90;;;;;;4885386;29;20212;-62
2021/04/14 01:05:38;;;;;;;12.52;11.25;;;0.30;99.90;;;;;;4885606;29;20310;-62
2021/04/14 01:08:06;;;;;;;13.43;10.40;;;0.20;99.90;;;;;;4889830;29;21082;-62
2021/04/14 01:10:32;;;;;;;9.70;8.68;;;0.10;99.90;;;;;;4887610;29;20294;-62
2021/04/14 01:12:59;;;;;;;12.05;10.55;;;0.30;99.90;;;;;;4892941;29;20302;-63
2021/04/14 01:15:30;;;;;;;12.65;10.35;;;0.20;99.90;;;;;;4888226;29;20304;-62
2021/04/14 01:17:57;;;;;;;12.43;10.18;;;0.10;99.90;;;;;;4892159;29;20226;-62
2021/04/14 01:20:24;;;;;;;13.80;12.45;;;-0.10;99.90;;;;;;4886145;29;20232;-62
2021/04/14 01:22:51;;;;;;;11.80;10.60;;;-0.30;99.90;;;;;;4886184;29;20220;-63
2021/04/14 01:25:20;;;;;;;12.73;11.00;;;-0.40;99.90;;;;;;4886042;29;20211;-62
2021/04/14 01:27:46;;;;;;;12.38;10.85;;;-0.60;99.90;;;;;;4891507;29;20332;-62
2021/04/14 01:30:17;;;;;;;14.73;11.32;;;-0.60;99.90;;;;;;4889884;29;20211;-62
2021/04/14 01:32:44;;;;;;;15.13;11.75;;;-0.50;99.90;;;;;;4892254;29;20211;-63
2021/04/14 01:35:13;;;;;;;14.27;12.27;;;-0.40;99.90;;;;;;4884679;29;20261;-62
2021/04/14 01:37:39;;;;;;;13.18;11.70;;;-0.30;99.90;;;;;;4892722;29;20226;-62
2021/04/14 01:40:08;;;;;;;13.95;12.20;;;-0.40;99.90;;;;;;4888867;29;20228;-62
2021/04/14 01:42:35;;;;;;;13.00;11.70;;;-0.30;99.90;;;;;;4881073;29;20200;-62
2021/04/14 01:45:02;;;;;;;14.30;12.80;;;-0.20;99.90;;;;;;4889822;29;20297;-62
2021/04/14 01:47:28;;;;;;;13.32;11.93;;;-0.20;99.90;;;;;;4891271;29;20219;-62
2021/04/14 01:49:54;;;;;;;12.77;11.52;;;-0.30;99.90;;;;;;4888205;29;20204;-62
2021/04/14 01:52:21;;;;;;;12.75;11.45;;;-0.40;99.90;;;;;;4886021;29;20217;-62
2021/04/14 01:54:47;;;;;;;14.18;12.65;;;-0.40;99.90;;;;;;4891720;29;20848;-61
2021/04/14 01:57:14;;;;;;;15.30;12.48;;;-0.50;99.90;;;;;;4892747;29;20227;-62
2021/04/14 01:59:40;;;;;;;13.52;11.90;;;-0.50;99.90;;;;;;4891893;29;20238;-62
2021/04/14 02:02:07;;;;;;;15.30;12.82;;;-0.60;99.90;;;;;;4887498;29;20619;-62
2021/04/14 02:04:33;;;;;;;16.30;13.13;;;-0.60;99.90;;;;;;4885789;29;20306;-63
2021/04/14 02:06:59;;;;;;;14.15;12.27;;;-0.70;99.90;;;;;;4887444;29;20254;-62
2021/04/14 02:09:26;;;;;;;14.35;12.98;;;-0.60;99.90;;;;;;4884043;29;20860;-63
2021/04/14 02:11:52;;;;;;;15.32;13.75;;;-0.60;99.90;;;;;;4888588;29;20210;-63
2021/04/14 02:14:19;;;;;;;13.02;11.73;;;-0.50;99.90;;;;;;4891370;29;20217;-62
2021/04/14 02:16:46;;;;;;;14.55;13.00;;;-0.50;99.90;;;;;;4891066;29;20665;-63
2021/04/14 02:19:12;;;;;;;14.10;12.00;;;-0.50;99.90;;;;;;4891327;29;20245;-62
2021/04/14 02:21:38;;;;;;;14.23;12.23;;;-0.50;99.90;;;;;;4884851;29;20716;-62
2021/04/14 02:24:06;;;;;;;14.55;10.93;;;-0.60;99.90;;;;;;4889360;29;20207;-62
2021/04/14 02:26:32;;;;;;;15.05;12.50;;;-0.60;99.90;;;;;;4886994;29;20305;-62
2021/04/14 02:28:59;;;;;;;14.63;12.68;;;-0.60;99.90;;;;;;4891902;29;20278;-64
2021/04/14 02:31:30;;;;;;;16.00;12.60;;;-0.70;99.90;;;;;;4889690;29;20218;-62
2021/04/14 02:33:59;;;;;;;18.92;16.27;;;-0.70;99.90;;;;;;4883446;29;20300;-63
2021/04/14 02:36:25;;;;;;;16.10;13.07;;;-0.70;99.90;;;;;;4888603;29;20234;-62
2021/04/14 02:38:52;;;;;;;14.50;12.60;;;-0.70;99.90;;;;;;4882850;29;20235;-61
2021/04/14 02:41:18;;;;;;;13.43;12.02;;;-0.80;99.90;;;;;;4889638;29;20302;-62
2021/04/14 02:43:44;;;;;;;16.50;13.35;;;-0.80;99.90;;;;;;4890077;29;20220;-61
2021/04/14 02:46:11;;;;;;;15.13;12.55;;;-0.80;99.90;;;;;;4879718;29;20211;-61
2021/04/14 02:48:38;;;;;;;16.48;13.82;;;-0.90;99.90;;;;;;4891822;29;20260;-62
2021/04/14 02:51:06;;;;;;;18.05;13.80;;;-0.90;99.90;;;;;;4891503;29;20294;-61
2021/04/14 02:53:33;;;;;;;14.93;13.05;;;-0.90;99.90;;;;;;4891140;29;20211;-62
2021/04/14 02:55:59;;;;;;;15.27;13.65;;;-1.00;99.90;;;;;;4891178;29;20203;-62
2021/04/14 02:58:26;;;;;;;15.48;12.82;;;-0.90;99.90;;;;;;4891243;29;20277;-61
2021/04/14 03:00:52;;;;;;;14.70;12.57;;;-0.90;99.90;;;;;;4890269;29;20242;-63
2021/04/14 03:03:18;;;;;;;16.90;12.75;;;-0.90;99.90;;;;;;4887730;29;20725;-62
2021/04/14 03:05:46;;;;;;;16.77;13.60;;;-0.90;99.90;;;;;;4883077;29;20220;-62
2021/04/14 03:08:12;;;;;;;15.35;13.50;;;-1.00;99.90;;;;;;4889049;29;20697;-62
2021/04/14 03:10:38;;;;;;;18.70;13.40;;;-1.10;99.90;;;;;;4889642;29;20203;-62
2021/04/14 03:13:06;;;;;;;14.70;12.32;;;-1.10;99.90;;;;;;4891482;29;20211;-62
2021/04/14 03:15:36;;;;;;;15.98;12.80;;;-1.20;99.90;;;;;;4889402;29;20298;-62
2021/04/14 03:18:02;;;;;;;15.32;13.27;;;-1.10;99.90;;;;;;4889322;29;20246;-62
2021/04/14 03:20:28;;;;;;;15.65;12.88;;;-1.00;99.90;;;;;;4890132;29;20215;-62
2021/04/14 03:22:56;;;;;;;21.58;12.93;;;-1.00;99.90;;;;;;4890966;29;20681;-62
2021/04/14 03:25:24;;;;;;;15.57;13.70;;;-1.00;99.90;;;;;;4887223;29;20215;-62
2021/04/14 03:27:51;;;;;;;14.25;12.80;;;-1.00;99.90;;;;;;4888495;29;20215;-62
2021/04/14 03:30:19;;;;;;;14.20;12.80;;;-1.10;99.90;;;;;;4886142;29;20208;-62
2021/04/14 03:32:45;;;;;;;13.98;12.07;;;-1.10;99.90;;;;;;4889359;29;20325;-62
2021/04/14 03:35:13;;;;;;;14.88;12.52;;;-1.00;99.90;;;;;;4889164;29;20218;-62
2021/04/14 03:37:39;;;;;;;17.33;14.20;;;-0.90;99.90;;;;;;4885370;29;20226;-62
2021/04/14 03:40:09;;;;;;;18.20;15.25;;;-0.80;99.90;;;;;;4882205;29;20239;-62
2021/04/14 03:42:35;;;;;;;15.27;13.80;;;-0.70;99.90;;;;;;4887866;29;20211;-62
2021/04/14 03:45:10;;;;;;;15.18;13.55;;;-0.80;99.90;;;;;;4890138;29;20211;-62
2021/04/14 03:47:36;;;;;;;17.30;13.68;;;-0.80;99.90;;;;;;4890096;29;20207;-63
2021/04/14 03:50:04;;;;;;;18.02;13.35;;;-1.00;99.90;;;;;;4890580;29;20706;-62
2021/04/14 03:52:30;;;;;;;17.80;12.65;;;-0.90;99.90;;;;;;4887160;29;20203;-62
2021/04/14 03:54:56;;;;;;;14.98;12.95;;;-1.00;99.90;;;;;;4889429;29;20217;-62
2021/04/14 03:57:23;;;;;;;15.70;13.15;;;-1.00;99.90;;;;;;4890726;29;20214;-62
2021/04/14 03:59:50;;;;;;;16.15;13.38;;;-1.10;99.90;;;;;;4889457;29;20369;-61
2021/04/14 04:02:16;;;;;;;15.57;12.25;;;-1.10;99.90;;;;;;4890238;29;20652;-62
2021/04/14 04:04:43;;;;;;;15.23;13.30;;;-1.10;99.90;;;;;;4886641;29;20218;-63
2021/04/14 04:07:09;;;;;;;16.23;12.60;;;-1.10;99.90;;;;;;4885713;29;20673;-62
2021/04/14 04:09:35;;;;;;;16.92;13.60;;;-1.10;99.90;;;;;;4883943;29;20691;-62
2021/04/14 04:12:05;;;;;;;15.27;13.02;;;-1.20;99.90;;;;;;4890445;29;20227;-62
2021/04/14 04:14:33;;;;;;;16.48;14.57;;;-1.20;99.90;;;;;;4889854;29;20203;-63
2021/04/14 04:16:59;;;;;;;16.30;12.80;;;-1.20;99.90;;;;;;4885856;29;20207;-63
2021/04/14 04:19:26;;;;;;;14.90;13.30;;;-1.20;99.90;;;;;;4889768;29;20305;-63
2021/04/14 04:21:52;;;;;;;14.48;12.50;;;-1.30;99.90;;;;;;4890364;29;20261;-62
2021/04/14 04:24:19;;;;;;;18.73;14.57;;;-1.30;99.90;;;;;;4889812;29;20211;-63
2021/04/14 04:26:45;;;;;;;15.35;13.15;;;-1.30;99.90;;;;;;4890100;29;20257;-62
2021/04/14 04:29:11;;;;;;;17.50;13.80;;;-1.30;99.90;;;;;;4889980;29;20294;-62
2021/04/14 04:31:38;;;;;;;15.43;13.55;;;-1.40;99.90;;;;;;4889712;29;20207;-63
2021/04/14 04:34:05;;;;;;;14.52;12.90;;;-1.30;99.90;;;;;;4884408;29;20222;-62
2021/04/14 04:36:31;;;;;;;13.82;12.43;;;-1.40;99.90;;;;;;4884322;29;20231;-62
2021/04/14 04:38:57;;;;;;;15.00;13.32;;;-1.40;99.90;;;;;;4886716;29;20234;-62
2021/04/14 04:41:24;;;;;;;15.65;13.30;;;-1.40;99.90;;;;;;4893766;29;20270;-62
2021/04/14 04:43:50;;;;;;;15.40;13.32;;;-1.50;99.90;;;;;;4891152;29;20775;-63
2021/04/14 04:46:16;;;;;;;14.25;12.38;;;-1.40;99.90;;;;;;4887439;29;20216;-63
2021/04/14 04:48:43;;;;;;;17.92;13.27;;;-1.40;99.90;;;;;;4885122;29;20274;-64
2021/04/14 04:51:10;;;;;;;21.70;14.85;;;-1.30;99.90;;;;;;4891205;29;20218;-62
2021/04/14 04:53:36;;;;;;;17.23;14.00;;;-1.30;99.90;;;;;;4888970;29;20208;-62
2021/04/14 04:56:02;;;;;;;20.80;15.27;;;-1.20;99.90;;;;;;4893358;29;20288;-66
2021/04/14 04:58:29;;;;;;;17.80;14.13;;;-1.10;99.90;;;;;;4890649;29;20235;-63
2021/04/14 05:00:55;;;;;;;17.65;14.63;;;-1.00;99.90;;;;;;4886202;29;20206;-62
2021/04/14 05:03:23;;;;;;;16.60;13.80;;;-0.90;99.90;;;;;;4890711;29;20271;-62
2021/04/14 05:05:51;;;;;;;17.80;13.65;;;-0.80;99.90;;;;;;4882083;29;20208;-62
2021/04/14 05:08:18;;;;;;;15.60;13.77;;;-0.60;99.90;;;;;;4885472;29;20215;-62
2021/04/14 05:10:44;;;;;;;16.02;13.68;;;-0.60;99.90;;;;;;4885986;29;20215;-62
2021/04/14 05:13:11;;;;;;;14.77;12.80;;;-0.40;99.90;;;;;;4892776;29;20211;-62
2021/04/14 05:15:39;;;;;;;19.35;15.80;;;-0.10;99.90;;;;;;4892858;29;20234;-63
2021/04/14 05:18:06;;;;;;;15.10;12.30;;;0.60;99.90;;;;;;4888631;29;20275;-64
2021/04/14 05:20:33;;;;;;;13.77;11.38;;;1.30;99.90;;;;;;4885838;29;20235;-64
2021/04/14 05:23:00;;;;;;;14.00;12.10;;;2.10;99.90;;;;;;4890132;29;20231;-64
2021/04/14 05:25:30;;;;;;;12.82;11.43;;;2.80;99.90;;;;;;4891410;29;20305;-64
2021/04/14 05:28:00;;;;;;;12.50;10.57;;;3.00;98.80;;;;;;4893275;29;20608;-64
2021/04/14 05:30:26;;;;;;;12.52;11.10;;;3.00;97.40;;;;;;4889615;29;20231;-64
2021/04/14 05:32:53;;;;;;;13.23;11.82;;;3.60;96.90;;;;;;4885371;29;20266;-65
2021/04/14 05:35:20;;;;;;;12.10;10.90;;;5.00;94.80;;;;;;4889294;29;20207;-64
2021/04/14 05:37:46;;;;;;;13.02;11.73;;;5.90;92.10;;;;;;4880985;29;20263;-64
2021/04/14 05:40:15;;;;;;;11.02;9.93;;;6.60;90.80;;;;;;4892082;29;20238;-64
2021/04/14 05:42:42;;;;;;;11.00;10.00;;;7.70;87.20;;;;;;4892124;29;20222;-64
2021/04/14 05:45:12;;;;;;;11.73;10.52;;;7.70;83.00;;;;;;4892994;29;20258;-64
2021/04/14 05:47:38;;;;;;;12.20;9.98;;;6.30;85.60;;;;;;4891489;29;20237;-64
2021/04/14 05:50:07;;;;;;;10.85;9.85;;;6.50;87.80;;;;;;4891189;29;20219;-64
2021/04/14 05:52:34;;;;;;;10.93;9.85;;;7.00;85.90;;;;;;4892302;29;20587;-64
2021/04/14 05:55:00;;;;;;;9.07;8.18;;;7.40;85.60;;;;;;4892462;29;20250;-65
2021/04/14 05:57:27;;;;;;;10.90;9.60;;;8.60;82.10;;;;;;4892830;29;20573;-64
2021/04/14 05:59:53;;;;;;;11.13;10.13;;;9.20;78.90;;;;;;4890183;29;20648;-64
2021/04/14 06:02:20;;;;;;;10.70;9.60;;;9.60;75.50;;;;;;4890561;29;20367;-64
2021/04/14 06:04:46;;;;;;;13.80;10.50;;;9.30;74.70;;;;;;4885436;29;20214;-64
2021/04/14 06:07:12;;;;;;;12.10;10.95;;;8.20;77.20;;;;;;4884642;29;20215;-64
2021/04/14 06:09:39;;;;;;;9.80;8.90;;;7.60;79.00;;;;;;4880291;29;20214;-64
2021/04/14 06:12:06;;;;;;;10.10;9.10;;;7.20;81.20;;;;;;4890937;29;20203;-64
2021/04/14 06:14:33;;;;;;;11.40;10.00;;;7.70;81.70;;;;;;4890484;29;20211;-64
2021/04/14 06:16:59;;;;;;;10.13;9.13;;;9.00;79.90;;;;;;4891882;29;20350;-64
2021/04/14 06:19:26;;;;;;;10.30;9.27;;;9.80;75.90;;;;;;4886837;29;20250;-64
2021/04/14 06:21:53;;;;;;;11.38;10.27;;;10.80;72.00;;;;;;4891403;29;20211;-64
2021/04/14 06:24:19;;;;;;;11.70;10.55;;;11.10;70.50;;;;;;4890129;29;20222;-64
2021/04/14 06:26:48;;;;;;;11.63;10.63;;;10.70;69.70;;;;;;4891951;29;20225;-64
2021/04/14 06:29:14;;;;;;;12.32;11.23;;;9.70;72.00;;;;;;4891605;29;20207;-64
2021/04/14 06:31:42;;;;;;;11.40;10.15;;;9.20;73.80;;;;;;4890038;29;20207;-64
2021/04/14 06:34:14;;;;;;;12.35;10.68;;;9.20;73.50;;;;;;4885914;29;20314;-64
2021/04/14 06:36:40;;;;;;;13.10;11.80;;;9.30;74.40;;;;;;4886984;29;20226;-64
2021/04/14 06:39:08;;;;;;;11.75;10.75;;;9.70;73.50;;;;;;4884847;29;20325;-65
2021/04/14 06:42:01;;;;;;;13.23;11.95;;;10.40;71.00;;;;;;4889969;29;20218;-64
2021/04/14 06:44:53;;;;;;;13.48;11.50;;;10.30;69.30;;;;;;4888567;29;20266;-64
2021/04/14 06:47:26;;;;;;;13.73;11.93;;;9.50;73.50;;;;;;4884384;29;20211;-64
2021/04/14 06:50:00;;;;;;;11.82;10.82;;;9.40;73.20;;;;;;4891818;29;20214;-64
2021/04/14 06:52:32;;;;;;;12.20;11.20;;;9.80;70.60;;;;;;4887540;29;20301;-65
2021/04/14 06:55:02;;;;;;;11.88;10.77;;;10.10;71.20;;;;;;4889247;29;20207;-65
2021/04/14 06:57:32;;;;;;;12.80;11.50;;;11.40;67.10;;;;;;4891312;29;20222;-64
2021/04/14 07:00:02;;;;;;;11.35;10.35;;;11.80;65.80;;;;;;4890651;29;20223;-64
2021/04/14 07:02:38;;;;;;;13.63;12.23;;;10.60;67.50;;;;;;4889778;29;20199;-64
2021/04/14 07:05:09;;;;;;;12.45;11.25;;;10.70;70.20;;;;;;4879637;29;20297;-65
2021/04/14 07:07:39;;;;;;;12.60;11.30;;;10.80;69.40;;;;;;4888872;29;20219;-64
2021/04/14 07:10:11;;;;;;;12.20;11.10;;;10.90;68.50;;;;;;4882313;29;20859;-64
2021/04/14 07:12:38;;;;;;;12.88;11.68;;;10.30;68.40;;;;;;4889370;29;20214;-64
2021/04/14 07:15:06;;;;;;;12.07;10.98;;;10.20;69.60;;;;;;4889098;29;20351;-64
2021/04/14 07:17:48;;;;;;;12.85;11.65;;;10.50;69.30;;;;;;4889594;29;20290;-65
2021/04/14 07:20:23;;;;;;;14.10;11.20;;;10.70;68.20;;;;;;4890925;29;20686;-64
2021/04/14 07:23:01;;;;;;;12.40;11.10;;;10.70;68.50;;;;;;4888655;29;20294;-65
2021/04/14 07:25:33;;;;;;;11.57;10.38;;;10.90;68.50;;;;;;4886257;29;20207;-65
2021/04/14 07:28:09;;;;;;;11.25;10.10;;;10.90;68.00;;;;;;4890852;29;20301;-64
2021/04/14 07:30:40;;;;;;;11.65;10.63;;;10.00;69.90;;;;;;4885116;29;20207;-64
2021/04/14 07:33:17;;;;;;;12.43;11.18;;;9.50;71.40;;;;;;4888259;29;20211;-64
2021/04/14 07:35:50;;;;;;;15.55;14.00;;;9.00;73.10;;;;;;4879907;29;20278;-64
2021/04/14 07:38:29;;;;;;;15.38;13.05;;;8.40;75.50;;;;;;4884351;29;20236;-64
2021/04/14 07:41:05;;;;;;;16.55;14.85;;;8.10;76.70;;;;;;4890648;29;20207;-64
2021/04/14 07:43:40;;;;;;;18.00;16.17;;;7.80;78.10;;;;;;4889175;29;20207;-65
2021/04/14 07:46:09;;;;;;;15.52;13.82;;;7.60;78.70;;;;;;4890132;29;20533;-64
2021/04/14 07:48:39;;;;;;;15.45;13.60;;;7.60;79.20;;;;;;4888424;29;20266;-64
2021/04/14 07:51:11;;;;;;;14.25;12.77;;;8.50;79.30;;;;;;4890723;29;20233;-64
2021/04/14 07:53:39;;;;;;;15.70;11.88;;;9.30;76.50;;;;;;4890864;29;20215;-64
2021/04/14 07:56:09;;;;;;;12.10;10.90;;;9.40;73.90;;;;;;4885600;29;20217;-65
2021/04/14 07:58:37;;;;;;;11.75;10.65;;;9.30;74.00;;;;;;4884852;29;20609;-64
2021/04/14 08:01:12;;;;;;;13.10;11.73;;;8.90;75.90;;;;;;4882563;29;20224;-64
2021/04/14 08:03:39;;;;;;;13.80;12.40;;;8.60;75.10;;;;;;4884919;29;20207;-64
2021/04/14 08:06:11;;;;;;;10.80;9.80;;;8.30;78.00;;;;;;4881804;29;20243;-64
2021/04/14 08:08:38;;;;;;;11.00;9.98;;;7.90;77.30;;;;;;4881346;29;20219;-64
2021/04/14 08:11:09;;;;;;;10.60;9.55;;;7.70;78.90;;;;;;4889346;29;20578;-64
2021/04/14 08:13:39;;;;;;;10.85;9.85;;;7.60;78.50;;;;;;4888164;29;20211;-64
2021/04/14 08:16:18;;;;;;;10.25;9.30;;;7.20;78.10;;;;;;4885605;29;20212;-64
2021/04/14 08:19:01;;;;;;;11.00;9.90;;;6.90;81.00;;;;;;4889626;29;20235;-63
2021/04/14 08:21:31;;;;;;;10.20;9.25;;;7.00;82.80;;;;;;4887725;29;20214;-64
2021/04/14 08:24:00;;;;;;;11.27;9.70;;;6.90;83.00;;;;;;4886824;29;20290;-64
2021/04/14 08:26:29;;;;;;;12.40;9.98;;;6.70;83.30;;;;;;4889427;29;20211;-63
2021/04/14 08:29:09;;;;;;;9.55;8.50;;;6.80;83.00;;;;;;4879157;29;20211;-64
2021/04/14 08:31:45;;;;;;;11.27;9.25;;;6.90;82.50;;;;;;4886268;29;20824;-64
2021/04/14 08:34:18;;;;;;;8.30;7.60;;;7.00;83.50;;;;;;4885485;29;20202;-64
2021/04/14 08:36:52;;;;;;;8.77;7.88;;;7.00;83.00;;;;;;4879874;29;20209;-63
2021/04/14 08:39:22;;;;;;;8.40;7.65;;;7.00;82.70;;;;;;4884053;29;20263;-63
2021/04/14 08:41:49;;;;;;;8.38;7.57;;;7.20;82.50;;;;;;4886231;29;20274;-64
2021/04/14 08:44:29;;;;;;;7.35;6.75;;;7.20;82.40;;;;;;4882663;29;20222;-64
2021/04/14 08:47:07;;;;;;;7.65;6.95;;;7.20;81.00;;;;;;4881601;29;20207;-64
2021/04/14 08:49:36;;;;;;;8.40;6.18;;;7.30;83.40;;;;;;4885366;29;20241;-63
2021/04/14 08:52:05;;;;;;;6.13;5.63;;;7.50;83.00;;;;;;4880452;29;20218;-64
2021/04/14 08:54:34;;;;;;;9.82;5.20;;;7.60;82.60;;;;;;4888187;29;20207;-64
2021/04/14 08:57:01;;;;;;;8.00;6.32;;;7.70;81.30;;;;;;4889661;29;20331;-64
2021/04/14 08:59:28;;;;;;;6.28;5.68;;;7.80;81.10;;;;;;4878321;29;20238;-64
2021/04/14 09:01:55;;;;;;;6.10;5.60;;;7.90;81.30;;;;;;4881406;29;20670;-64
2021/04/14 09:04:22;;;;;;;5.95;5.35;;;7.90;80.10;;;;;;4880147;29;20298;-64
2021/04/14 09:06:51;;;;;;;7.50;6.22;;;7.90;80.50;;;;;;4888431;29;20215;-64
2021/04/14 09:09:19;;;;;;;7.40;5.97;;;8.10;78.60;;;;;;4888041;29;20211;-64
2021/04/14 09:11:57;;;;;;;8.40;5.47;;;8.40;76.20;;;;;;4876103;29;20218;-64
2021/04/14 09:14:28;;;;;;;7.25;5.80;;;8.90;77.40;;;;;;4886558;29;20305;-63
2021/04/14 09:16:56;;;;;;;6.43;4.85;;;9.60;76.20;;;;;;4880740;29;20203;-64
2021/04/14 09:19:29;;;;;;;5.22;4.72;;;10.50;72.40;;;;;;4882932;29;20231;-64
2021/04/14 09:22:00;;;;;;;5.18;4.78;;;10.50;71.30;;;;;;4882591;29;20318;-64
2021/04/14 09:24:42;;;;;;;5.55;4.80;;;10.40;71.50;;;;;;4885836;29;20219;-64
2021/04/14 09:27:24;;;;;;;4.18;3.88;;;10.30;70.70;;;;;;4881607;29;20204;-64
2021/04/14 09:30:02;;;;;;;6.53;5.47;;;11.00;70.20;;;;;;4881897;29;20203;-64
2021/04/14 09:32:53;;;;;;;4.72;4.22;;;10.30;67.70;;;;;;4885730;29;20684;-64
2021/04/14 09:35:25;;;;;;;6.38;4.30;;;9.30;70.90;;;;;;4892823;29;20215;-64
2021/04/14 09:38:05;;;;;;;5.00;4.57;;;8.70;73.70;;;;;;4893186;29;20696;-65
2021/04/14 09:40:34;;;;;;;5.82;5.22;;;8.60;74.40;;;;;;4886677;29;20243;-64
2021/04/14 09:43:00;;;;;;;5.93;4.65;;;8.40;75.30;;;;;;4891261;29;20207;-64
2021/04/14 09:45:34;;;;;;;6.40;4.85;;;8.80;74.70;;;;;;4888467;29;20294;-65
2021/04/14 09:48:15;;;;;;;5.15;4.75;;;9.30;70.50;;;;;;4888354;29;20307;-65
2021/04/14 09:50:43;;;;;;;4.63;4.22;;;9.50;71.30;;;;;;4886877;29;20219;-65
2021/04/14 09:53:23;;;;;;;4.93;4.53;;;9.40;68.80;;;;;;4887841;29;20214;-65
2021/04/14 09:55:53;;;;;;;5.63;3.95;;;9.00;67.20;;;;;;4893233;29;20203;-64
2021/04/14 09:58:30;;;;;;;4.30;3.60;;;9.10;65.70;;;;;;4888230;29;20255;-64
2021/04/14 10:01:08;;;;;;;4.00;3.60;;;9.20;66.40;;;;;;4889240;29;20199;-64
2021/04/14 10:03:37;;;;;;;3.72;3.42;;;9.30;63.30;;;;;;4885222;29;20211;-64
2021/04/14 10:06:08;;;;;;;4.20;3.72;;;9.60;61.90;;;;;;4889204;29;20218;-64
2021/04/14 10:08:36;;;;;;;3.78;3.45;;;9.50;61.60;;;;;;4889803;29;20669;-64
2021/04/14 10:11:03;;;;;;;4.18;3.67;;;9.80;62.30;;;;;;4892935;29;20226;-65
2021/04/14 10:13:32;;;;;;;4.80;4.40;;;9.70;61.50;;;;;;4889436;29;20212;-64
2021/04/14 10:16:00;;;;;;;4.70;4.40;;;9.30;61.00;;;;;;4890762;29;20235;-64
2021/04/14 10:18:28;;;;;;;4.40;4.00;;;9.30;62.70;;;;;;4892624;29;20250;-64
2021/04/14 10:20:56;;;;;;;4.97;4.53;;;9.10;62.50;;;;;;4885024;29;20263;-64
2021/04/14 10:23:24;;;;;;;3.75;3.45;;;8.80;62.60;;;;;;4892709;29;20218;-64
2021/04/14 10:26:04;;;;;;;4.53;4.13;;;8.60;61.60;;;;;;4892205;29;20219;-64
2021/04/14 10:28:30;;;;;;;5.90;5.32;;;8.60;64.30;;;;;;4889915;29;20645;-64
2021/04/14 10:31:05;;;;;;;5.45;5.13;;;8.60;67.40;;;;;;4885817;29;20211;-64
2021/04/14 10:33:32;;;;;;;5.60;5.07;;;8.10;70.80;;;;;;4892165;29;20333;-64
2021/04/14 10:36:11;;;;;;;17.75;15.10;;;7.40;73.50;;;;;;4887471;29;20215;-63
2021/04/14 10:38:38;;;;;;;5.00;4.60;;;6.90;74.10;;;;;;4890066;29;20222;-64
2021/04/14 10:41:20;;;;;;;8.75;7.97;;;6.50;75.70;;;;;;4887644;29;21254;-63
2021/04/14 10:43:47;;;;;;;5.88;5.38;;;6.20;76.80;;;;;;4883555;29;20332;-64
2021/04/14 10:46:16;;;;;;;4.45;4.05;;;6.10;78.70;;;;;;4887606;29;20223;-64
2021/04/14 10:48:44;;;;;;;5.18;4.68;;;6.20;79.30;;;;;;4889254;29;20215;-64
2021/04/14 10:51:16;;;;;;;6.00;4.20;;;6.00;80.60;;;;;;4891973;29;20579;-64
2021/04/14 10:53:44;;;;;;;5.35;4.85;;;6.00;81.10;;;;;;4888025;29;20252;-64
2021/04/14 10:56:17;;;;;;;5.10;4.70;;;6.20;82.50;;;;;;4890599;29;20363;-64
2021/04/14 10:58:44;;;;;;;4.97;4.47;;;6.40;83.20;;;;;;4890246;29;20305;-63
2021/04/14 11:01:13;;;;;;;4.90;4.50;;;6.70;82.80;;;;;;4886136;29;20306;-64
2021/04/14 11:03:46;;;;;;;5.28;4.78;;;6.80;81.90;;;;;;4889966;29;20290;-64
2021/04/14 11:06:15;;;;;;;4.30;4.00;;;6.90;80.70;;;;;;4891230;29;20266;-64
2021/04/14 11:08:42;;;;;;;4.70;4.38;;;7.10;79.20;;;;;;4890481;29;20215;-63
2021/04/14 11:11:10;;;;;;;5.15;4.75;;;7.20;78.40;;;;;;4891177;29;20289;-64
2021/04/14 11:13:43;;;;;;;4.95;4.57;;;7.60;78.40;;;;;;4891115;29;20298;-63
2021/04/14 11:16:12;;;;;;;5.10;4.78;;;8.00;76.50;;;;;;4890466;29;20213;-64
2021/04/14 11:18:41;;;;;;;5.15;4.75;;;7.90;77.10;;;;;;4890672;29;20299;-64
2021/04/14 11:21:23;;;;;;;5.25;4.85;;;8.00;76.60;;;;;;4885045;29;20901;-64
2021/04/14 11:23:49;;;;;;;4.65;4.35;;;8.30;77.40;;;;;;4891289;29;20243;-64
2021/04/14 11:26:20;;;;;;;5.13;4.72;;;8.50;74.00;;;;;;4890297;29;20214;-64
2021/04/14 11:28:51;;;;;;;4.95;4.60;;;8.50;73.10;;;;;;4889776;29;20802;-64
2021/04/14 11:31:30;;;;;;;6.25;4.90;;;8.60;73.40;;;;;;4889965;29;20203;-65
2021/04/14 11:33:57;;;;;;;3.67;3.47;;;8.70;71.20;;;;;;4888072;29;20211;-64
2021/04/14 11:36:31;;;;;;;4.30;4.00;;;8.90;71.60;;;;;;4886597;29;20207;-64
2021/04/14 11:39:05;;;;;;;4.57;4.18;;;9.20;69.20;;;;;;4890436;29;20676;-65
2021/04/14 11:41:33;;;;;;;5.20;3.80;;;9.40;67.30;;;;;;4887533;29;20305;-64
2021/04/14 11:44:00;;;;;;;5.00;3.58;;;9.40;67.30;;;;;;4890022;29;20219;-65
2021/04/14 11:46:35;;;;;;;4.07;3.78;;;9.60;67.80;;;;;;4890076;29;20231;-64
2021/04/14 11:49:03;;;;;;;4.43;3.80;;;9.50;65.30;;;;;;4886360;29;20699;-64
2021/04/14 11:51:36;;;;;;;3.78;3.53;;;9.60;64.20;;;;;;4888749;29;20213;-64
2021/04/14 11:54:07;;;;;;;3.83;3.47;;;9.50;64.10;;;;;;4886236;29;20603;-64
2021/04/14 11:56:40;;;;;;;3.97;3.58;;;9.60;61.30;;;;;;4889293;29;20211;-64
2021/04/14 11:59:23;;;;;;;3.90;3.50;;;9.80;60.20;;;;;;4884162;29;20719;-64
2021/04/14 12:01:57;;;;;;;4.07;3.83;;;9.90;60.80;;;;;;4888877;29;20281;-66
2021/04/14 12:04:23;;;;;;;3.70;3.40;;;10.10;58.80;;;;;;4878559;29;20705;-65
2021/04/14 12:06:50;;;;;;;4.00;3.70;;;10.30;56.30;;;;;;4889564;29;20207;-64
2021/04/14 12:09:16;;;;;;;3.53;3.33;;;10.10;53.90;;;;;;4890435;29;20582;-65
2021/04/14 12:11:43;;;;;;;4.28;3.97;;;9.80;54.40;;;;;;4888129;29;20745;-64
2021/04/14 12:14:10;;;;;;;3.50;3.20;;;9.80;55.60;;;;;;4888659;29;20265;-64
2021/04/14 12:16:37;;;;;;;4.30;3.40;;;9.90;56.90;;;;;;4883394;29;20207;-64
2021/04/14 12:19:04;;;;;;;4.10;3.80;;;10.10;58.30;;;;;;4891009;29;20226;-65
2021/04/14 12:21:32;;;;;;;3.72;3.40;;;10.10;57.50;;;;;;4890510;29;20207;-64
2021/04/14 12:23:59;;;;;;;3.85;3.65;;;10.00;58.60;;;;;;4884703;29;20573;-65
2021/04/14 12:26:26;;;;;;;4.55;3.35;;;10.30;59.60;;;;;;4890695;29;20211;-64
2021/04/14 12:28:53;;;;;;;4.53;4.13;;;10.40;57.20;;;;;;4889300;29;20222;-64
2021/04/14 12:31:21;;;;;;;3.88;3.50;;;10.20;57.10;;;;;;4890547;29;20207;-64
2021/04/14 12:33:47;;;;;;;3.35;3.15;;;10.30;58.00;;;;;;4887974;29;20221;-65
2021/04/14 12:36:15;;;;;;;3.17;2.88;;;10.50;57.20;;;;;;4885200;29;20234;-64
2021/04/14 12:38:41;;;;;;;3.67;3.47;;;10.70;57.40;;;;;;4888142;29;20617;-65
2021/04/14 12:41:08;;;;;;;4.35;3.80;;;10.40;57.00;;;;;;4883649;29;20215;-65
2021/04/14 12:43:35;;;;;;;4.10;3.80;;;10.50;59.70;;;;;;4885309;29;20212;-64
2021/04/14 12:46:02;;;;;;;3.40;3.20;;;10.40;57.60;;;;;;4884852;29;20221;-65
2021/04/14 12:48:30;;;;;;;4.05;3.65;;;10.60;58.20;;;;;;4888443;29;20729;-65
2021/04/14 12:51:06;;;;;;;3.85;3.40;;;10.80;55.40;;;;;;4889861;29;20207;-64